CYLL

Lloydminster Airport

Lloydminster, Alberta, Canada
METAR CYLL 181500Z 26012KT 15SM SCT160 BKN250 08/M02 A2988 RMK AC3CI4 SLP135
Observed Flight Rules
Oct-18 @ 15:00 UTC (an hour ago) Visual Flight Rules
Wind Visibility Clouds
260° at 12 knots 15 miles
  • Scattered at 16,000' AGL
  • Broken at 25,000' AGL
Temperatures Readings
Current 8°C / 46°F
Dewpoint -2°C / 28°F
Humidity 50%
Altimeter 29.88" Hg
Pressure 1013.5 hPa
Elevation 669
METAR CYLL 181500Z 26012KT 15SM SCT160 BKN250 08/M02 A2988 RMK AC3CI4 SLP135
Observed Flight Rules
Oct-18 @ 15:00 UTC
(an hour ago)
VFR
Wind Visibility
260° at 12 knots 15 miles
Clouds
  • Scattered at 16,000' AGL
  • Broken at 25,000' AGL
Temperature Dewpoint
8°C / 46°F -2°C / 28°F
Humidity Altimeter Pressure
50% 29.88" Hg 1013.5 hPa